sensor_id;sensor_type;location;lat;lon;timestamp;temperature;humidity
12682;DHT22;6405;59.208;18.216;2022-10-16T00:01:20;12.10;99.90
12682;DHT22;6405;59.208;18.216;2022-10-16T00:03:50;12.10;99.90
12682;DHT22;6405;59.208;18.216;2022-10-16T00:06:19;12.10;99.90
12682;DHT22;6405;59.208;18.216;2022-10-16T00:08:47;12.10;99.90
12682;DHT22;6405;59.208;18.216;2022-10-16T00:11:20;12.10;99.90
12682;DHT22;6405;59.208;18.216;2022-10-16T00:13:48;12.10;99.90
12682;DHT22;6405;59.208;18.216;2022-10-16T00:16:17;12.10;99.90
12682;DHT22;6405;59.208;18.216;2022-10-16T00:18:44;12.10;99.90
12682;DHT22;6405;59.208;18.216;2022-10-16T00:21:22;12.00;99.90
12682;DHT22;6405;59.208;18.216;2022-10-16T00:23:54;12.00;99.90
12682;DHT22;6405;59.208;18.216;2022-10-16T00:26:21;12.00;99.90
12682;DHT22;6405;59.208;18.216;2022-10-16T00:28:50;12.00;99.90
12682;DHT22;6405;59.208;18.216;2022-10-16T00:31:19;12.00;99.90
12682;DHT22;6405;59.208;18.216;2022-10-16T00:33:47;12.00;99.90
12682;DHT22;6405;59.208;18.216;2022-10-16T00:36:18;12.00;99.90
12682;DHT22;6405;59.208;18.216;2022-10-16T00:38:46;12.00;99.90
12682;DHT22;6405;59.208;18.216;2022-10-16T00:41:15;12.00;99.90
12682;DHT22;6405;59.208;18.216;2022-10-16T00:43:45;12.00;99.90
12682;DHT22;6405;59.208;18.216;2022-10-16T00:46:13;12.00;99.90
12682;DHT22;6405;59.208;18.216;2022-10-16T00:48:45;12.10;99.90
12682;DHT22;6405;59.208;18.216;2022-10-16T00:51:11;12.00;99.90
12682;DHT22;6405;59.208;18.216;2022-10-16T00:53:38;11.90;99.90
12682;DHT22;6405;59.208;18.216;2022-10-16T00:56:06;11.90;99.90
12682;DHT22;6405;59.208;18.216;2022-10-16T00:58:34;11.90;99.90
12682;DHT22;6405;59.208;18.216;2022-10-16T01:01:01;11.90;99.90
12682;DHT22;6405;59.208;18.216;2022-10-16T01:03:32;11.90;99.90
12682;DHT22;6405;59.208;18.216;2022-10-16T01:11:34;11.90;99.90
12682;DHT22;6405;59.208;18.216;2022-10-16T01:14:11;11.90;99.90
12682;DHT22;6405;59.208;18.216;2022-10-16T01:16:48;11.80;99.90
12682;DHT22;6405;59.208;18.216;2022-10-16T01:19:19;11.90;99.90
12682;DHT22;6405;59.208;18.216;2022-10-16T01:21:49;11.80;99.90
12682;DHT22;6405;59.208;18.216;2022-10-16T01:24:31;11.80;99.90
12682;DHT22;6405;59.208;18.216;2022-10-16T01:27:09;11.80;99.90
12682;DHT22;6405;59.208;18.216;2022-10-16T01:29:56;11.80;99.90
12682;DHT22;6405;59.208;18.216;2022-10-16T01:37:36;11.80;99.90
12682;DHT22;6405;59.208;18.216;2022-10-16T01:40:09;11.80;99.90
12682;DHT22;6405;59.208;18.216;2022-10-16T01:42:48;11.80;99.90
12682;DHT22;6405;59.208;18.216;2022-10-16T01:45:18;11.80;99.90
12682;DHT22;6405;59.208;18.216;2022-10-16T01:47:48;11.80;99.90
12682;DHT22;6405;59.208;18.216;2022-10-16T01:50:18;11.90;99.90
12682;DHT22;6405;59.208;18.216;2022-10-16T01:52:49;11.90;99.90
12682;DHT22;6405;59.208;18.216;2022-10-16T01:55:26;11.90;99.90
12682;DHT22;6405;59.208;18.216;2022-10-16T01:57:54;11.90;99.90
12682;DHT22;6405;59.208;18.216;2022-10-16T02:00:22;11.90;99.90
12682;DHT22;6405;59.208;18.216;2022-10-16T02:02:53;11.90;99.90
12682;DHT22;6405;59.208;18.216;2022-10-16T02:05:46;11.90;99.90
12682;DHT22;6405;59.208;18.216;2022-10-16T02:08:14;11.90;99.90
12682;DHT22;6405;59.208;18.216;2022-10-16T02:10:41;11.90;99.90
12682;DHT22;6405;59.208;18.216;2022-10-16T02:15:54;11.90;99.90
12682;DHT22;6405;59.208;18.216;2022-10-16T02:18:21;11.90;99.90
12682;DHT22;6405;59.208;18.216;2022-10-16T02:20:53;11.90;99.90
12682;DHT22;6405;59.208;18.216;2022-10-16T02:26:05;11.90;99.90
12682;DHT22;6405;59.208;18.216;2022-10-16T02:28:42;11.90;99.90
12682;DHT22;6405;59.208;18.216;2022-10-16T02:31:13;11.80;99.90
12682;DHT22;6405;59.208;18.216;2022-10-16T02:33:43;11.80;99.90
12682;DHT22;6405;59.208;18.216;2022-10-16T02:36:11;11.80;99.90
12682;DHT22;6405;59.208;18.216;2022-10-16T02:38:40;11.80;99.90
12682;DHT22;6405;59.208;18.216;2022-10-16T02:41:07;11.80;99.90
12682;DHT22;6405;59.208;18.216;2022-10-16T02:43:33;11.80;99.90
12682;DHT22;6405;59.208;18.216;2022-10-16T02:46:01;11.80;99.90
12682;DHT22;6405;59.208;18.216;2022-10-16T02:48:28;11.80;99.90
12682;DHT22;6405;59.208;18.216;2022-10-16T02:50:54;11.80;99.90
12682;DHT22;6405;59.208;18.216;2022-10-16T02:53:22;11.80;99.90
12682;DHT22;6405;59.208;18.216;2022-10-16T02:55:49;11.80;99.90
12682;DHT22;6405;59.208;18.216;2022-10-16T02:58:16;11.80;99.90
12682;DHT22;6405;59.208;18.216;2022-10-16T03:00:42;11.80;99.90
12682;DHT22;6405;59.208;18.216;2022-10-16T03:03:13;11.90;99.90
12682;DHT22;6405;59.208;18.216;2022-10-16T03:05:43;11.80;99.90
12682;DHT22;6405;59.208;18.216;2022-10-16T03:08:13;11.80;99.90
12682;DHT22;6405;59.208;18.216;2022-10-16T03:10:39;11.80;99.90
12682;DHT22;6405;59.208;18.216;2022-10-16T03:13:05;11.80;99.90
12682;DHT22;6405;59.208;18.216;2022-10-16T03:15:33;11.80;99.90
12682;DHT22;6405;59.208;18.216;2022-10-16T03:17:59;11.80;99.90
12682;DHT22;6405;59.208;18.216;2022-10-16T03:20:25;11.80;99.90
12682;DHT22;6405;59.208;18.216;2022-10-16T03:22:52;11.80;99.90
12682;DHT22;6405;59.208;18.216;2022-10-16T03:25:20;11.80;99.90
12682;DHT22;6405;59.208;18.216;2022-10-16T03:27:47;11.80;99.90
12682;DHT22;6405;59.208;18.216;2022-10-16T03:30:14;11.80;99.90
12682;DHT22;6405;59.208;18.216;2022-10-16T03:32:39;11.70;99.90
12682;DHT22;6405;59.208;18.216;2022-10-16T03:35:06;11.70;99.90
12682;DHT22;6405;59.208;18.216;2022-10-16T03:37:33;11.70;99.90
12682;DHT22;6405;59.208;18.216;2022-10-16T03:40:00;11.70;99.90
12682;DHT22;6405;59.208;18.216;2022-10-16T03:42:27;11.70;99.90
12682;DHT22;6405;59.208;18.216;2022-10-16T03:44:54;11.70;99.90
12682;DHT22;6405;59.208;18.216;2022-10-16T03:47:20;11.70;99.90
12682;DHT22;6405;59.208;18.216;2022-10-16T03:49:49;11.80;99.90
12682;DHT22;6405;59.208;18.216;2022-10-16T03:52:17;11.60;99.90
12682;DHT22;6405;59.208;18.216;2022-10-16T03:54:45;11.80;99.90
12682;DHT22;6405;59.208;18.216;2022-10-16T03:57:11;11.60;99.90
12682;DHT22;6405;59.208;18.216;2022-10-16T03:59:39;11.60;99.90
12682;DHT22;6405;59.208;18.216;2022-10-16T04:02:06;11.60;99.90
12682;DHT22;6405;59.208;18.216;2022-10-16T04:04:34;11.50;99.90
12682;DHT22;6405;59.208;18.216;2022-10-16T04:07:02;11.50;99.90
12682;DHT22;6405;59.208;18.216;2022-10-16T04:09:27;11.50;99.90
12682;DHT22;6405;59.208;18.216;2022-10-16T04:11:54;11.40;99.90
12682;DHT22;6405;59.208;18.216;2022-10-16T04:14:23;11.40;99.90
12682;DHT22;6405;59.208;18.216;2022-10-16T04:16:50;11.40;99.90
12682;DHT22;6405;59.208;18.216;2022-10-16T04:19:16;11.40;99.90
12682;DHT22;6405;59.208;18.216;2022-10-16T04:21:43;11.40;99.90
12682;DHT22;6405;59.208;18.216;2022-10-16T04:24:09;11.30;99.90
12682;DHT22;6405;59.208;18.216;2022-10-16T04:26:38;11.30;99.90
12682;DHT22;6405;59.208;18.216;2022-10-16T04:29:05;11.30;99.90
12682;DHT22;6405;59.208;18.216;2022-10-16T04:31:33;11.20;99.90
12682;DHT22;6405;59.208;18.216;2022-10-16T04:34:00;11.20;99.90
12682;DHT22;6405;59.208;18.216;2022-10-16T04:36:27;11.20;99.90
12682;DHT22;6405;59.208;18.216;2022-10-16T04:38:54;11.20;99.90
12682;DHT22;6405;59.208;18.216;2022-10-16T04:41:21;11.20;99.90
12682;DHT22;6405;59.208;18.216;2022-10-16T04:43:48;11.20;99.90
12682;DHT22;6405;59.208;18.216;2022-10-16T04:46:15;11.20;99.90
12682;DHT22;6405;59.208;18.216;2022-10-16T04:48:42;11.20;99.90
12682;DHT22;6405;59.208;18.216;2022-10-16T04:51:08;11.10;99.90
12682;DHT22;6405;59.208;18.216;2022-10-16T04:53:34;11.10;99.90
12682;DHT22;6405;59.208;18.216;2022-10-16T04:56:02;11.10;99.90
12682;DHT22;6405;59.208;18.216;2022-10-16T04:58:27;11.10;99.90
12682;DHT22;6405;59.208;18.216;2022-10-16T05:00:53;11.10;99.90
12682;DHT22;6405;59.208;18.216;2022-10-16T05:03:20;11.10;99.90
12682;DHT22;6405;59.208;18.216;2022-10-16T05:05:47;11.10;99.90
12682;DHT22;6405;59.208;18.216;2022-10-16T05:08:15;11.10;99.90
12682;DHT22;6405;59.208;18.216;2022-10-16T05:10:43;11.10;99.90
12682;DHT22;6405;59.208;18.216;2022-10-16T05:13:09;11.10;99.90
12682;DHT22;6405;59.208;18.216;2022-10-16T05:15:37;11.10;99.90
12682;DHT22;6405;59.208;18.216;2022-10-16T05:18:03;11.20;99.90
12682;DHT22;6405;59.208;18.216;2022-10-16T05:20:30;11.20;99.90
12682;DHT22;6405;59.208;18.216;2022-10-16T05:22:58;11.20;99.90
12682;DHT22;6405;59.208;18.216;2022-10-16T05:25:24;11.20;99.90
12682;DHT22;6405;59.208;18.216;2022-10-16T05:27:51;11.20;99.90
12682;DHT22;6405;59.208;18.216;2022-10-16T05:30:17;11.20;99.90
12682;DHT22;6405;59.208;18.216;2022-10-16T05:32:49;11.30;99.90
12682;DHT22;6405;59.208;18.216;2022-10-16T05:35:17;11.30;99.90
12682;DHT22;6405;59.208;18.216;2022-10-16T05:37:44;11.30;99.90
12682;DHT22;6405;59.208;18.216;2022-10-16T05:40:11;11.30;99.90
12682;DHT22;6405;59.208;18.216;2022-10-16T05:42:40;11.30;99.90
12682;DHT22;6405;59.208;18.216;2022-10-16T05:45:09;11.40;99.90
12682;DHT22;6405;59.208;18.216;2022-10-16T05:47:37;11.40;99.90
12682;DHT22;6405;59.208;18.216;2022-10-16T05:50:04;11.40;99.90
12682;DHT22;6405;59.208;18.216;2022-10-16T05:52:32;11.40;99.90
12682;DHT22;6405;59.208;18.216;2022-10-16T05:54:58;11.50;99.90
12682;DHT22;6405;59.208;18.216;2022-10-16T05:57:26;11.50;99.90
12682;DHT22;6405;59.208;18.216;2022-10-16T05:59:53;11.50;99.90
12682;DHT22;6405;59.208;18.216;2022-10-16T06:02:20;11.60;99.90
12682;DHT22;6405;59.208;18.216;2022-10-16T06:04:48;11.60;99.90
12682;DHT22;6405;59.208;18.216;2022-10-16T06:07:14;11.70;99.90
12682;DHT22;6405;59.208;18.216;2022-10-16T06:09:42;11.70;99.90
12682;DHT22;6405;59.208;18.216;2022-10-16T06:12:08;11.70;99.90
12682;DHT22;6405;59.208;18.216;2022-10-16T06:14:34;11.70;99.90
12682;DHT22;6405;59.208;18.216;2022-10-16T06:17:01;11.70;99.90
12682;DHT22;6405;59.208;18.216;2022-10-16T06:19:28;11.80;99.90
12682;DHT22;6405;59.208;18.216;2022-10-16T06:21:55;11.80;99.90
12682;DHT22;6405;59.208;18.216;2022-10-16T06:24:24;11.80;99.90
12682;DHT22;6405;59.208;18.216;2022-10-16T06:26:51;11.80;99.90
12682;DHT22;6405;59.208;18.216;2022-10-16T06:29:18;11.80;99.90
12682;DHT22;6405;59.208;18.216;2022-10-16T06:31:45;11.90;99.90
12682;DHT22;6405;59.208;18.216;2022-10-16T06:34:13;11.90;99.90
12682;DHT22;6405;59.208;18.216;2022-10-16T06:36:40;11.90;99.90
12682;DHT22;6405;59.208;18.216;2022-10-16T06:39:06;11.90;99.90
12682;DHT22;6405;59.208;18.216;2022-10-16T06:41:36;11.90;99.90
12682;DHT22;6405;59.208;18.216;2022-10-16T06:44:05;11.90;99.90
12682;DHT22;6405;59.208;18.216;2022-10-16T06:46:32;11.90;99.90
12682;DHT22;6405;59.208;18.216;2022-10-16T06:49:00;12.00;99.90
12682;DHT22;6405;59.208;18.216;2022-10-16T06:51:28;12.00;99.90
12682;DHT22;6405;59.208;18.216;2022-10-16T06:53:55;12.00;99.90
12682;DHT22;6405;59.208;18.216;2022-10-16T06:56:28;12.00;99.90
12682;DHT22;6405;59.208;18.216;2022-10-16T06:58:56;12.00;99.90
12682;DHT22;6405;59.208;18.216;2022-10-16T07:01:24;12.10;99.90
12682;DHT22;6405;59.208;18.216;2022-10-16T07:03:52;12.10;99.90
12682;DHT22;6405;59.208;18.216;2022-10-16T07:06:21;12.10;99.90
12682;DHT22;6405;59.208;18.216;2022-10-16T07:08:50;12.10;99.90
12682;DHT22;6405;59.208;18.216;2022-10-16T07:11:22;12.10;99.90
12682;DHT22;6405;59.208;18.216;2022-10-16T07:13:50;12.20;99.90
12682;DHT22;6405;59.208;18.216;2022-10-16T07:16:20;12.20;99.90
12682;DHT22;6405;59.208;18.216;2022-10-16T07:18:48;12.20;99.90
12682;DHT22;6405;59.208;18.216;2022-10-16T07:21:18;12.30;99.90
12682;DHT22;6405;59.208;18.216;2022-10-16T07:23:53;12.30;99.90
12682;DHT22;6405;59.208;18.216;2022-10-16T07:26:23;12.30;99.90
12682;DHT22;6405;59.208;18.216;2022-10-16T07:28:48;12.30;99.90
12682;DHT22;6405;59.208;18.216;2022-10-16T07:31:17;12.30;99.90
12682;DHT22;6405;59.208;18.216;2022-10-16T07:33:45;12.30;99.90
12682;DHT22;6405;59.208;18.216;2022-10-16T07:36:14;12.30;99.90
12682;DHT22;6405;59.208;18.216;2022-10-16T07:38:43;12.30;99.90
12682;DHT22;6405;59.208;18.216;2022-10-16T07:41:13;12.40;99.90
12682;DHT22;6405;59.208;18.216;2022-10-16T07:43:45;12.50;99.90
12682;DHT22;6405;59.208;18.216;2022-10-16T07:46:14;12.50;99.90
12682;DHT22;6405;59.208;18.216;2022-10-16T07:48:41;12.50;99.90
12682;DHT22;6405;59.208;18.216;2022-10-16T07:51:13;12.70;99.90
12682;DHT22;6405;59.208;18.216;2022-10-16T07:53:41;12.60;99.90
12682;DHT22;6405;59.208;18.216;2022-10-16T07:56:09;12.60;99.90
12682;DHT22;6405;59.208;18.216;2022-10-16T07:58:36;12.60;99.90
12682;DHT22;6405;59.208;18.216;2022-10-16T08:01:11;12.70;99.90
12682;DHT22;6405;59.208;18.216;2022-10-16T08:03:45;12.70;99.90
12682;DHT22;6405;59.208;18.216;2022-10-16T08:06:11;12.70;99.90
12682;DHT22;6405;59.208;18.216;2022-10-16T08:08:38;12.80;99.90
12682;DHT22;6405;59.208;18.216;2022-10-16T08:11:06;12.80;99.90
12682;DHT22;6405;59.208;18.216;2022-10-16T08:13:33;12.80;99.90
12682;DHT22;6405;59.208;18.216;2022-10-16T08:15:59;12.80;99.90
12682;DHT22;6405;59.208;18.216;2022-10-16T08:18:25;12.80;99.90
12682;DHT22;6405;59.208;18.216;2022-10-16T08:20:56;12.90;99.90
12682;DHT22;6405;59.208;18.216;2022-10-16T08:23:24;12.90;99.90
12682;DHT22;6405;59.208;18.216;2022-10-16T08:25:53;12.90;99.90
12682;DHT22;6405;59.208;18.216;2022-10-16T08:28:20;13.00;99.90
12682;DHT22;6405;59.208;18.216;2022-10-16T08:30:47;13.00;99.90
12682;DHT22;6405;59.208;18.216;2022-10-16T08:33:13;13.00;99.90
12682;DHT22;6405;59.208;18.216;2022-10-16T08:35:41;13.00;99.90
12682;DHT22;6405;59.208;18.216;2022-10-16T08:38:09;13.00;99.90
12682;DHT22;6405;59.208;18.216;2022-10-16T08:40:36;13.00;99.90
12682;DHT22;6405;59.208;18.216;2022-10-16T08:43:25;13.00;99.90
12682;DHT22;6405;59.208;18.216;2022-10-16T08:48:53;13.00;99.90
12682;DHT22;6405;59.208;18.216;2022-10-16T08:51:31;13.00;99.90
12682;DHT22;6405;59.208;18.216;2022-10-16T08:54:02;12.90;99.90
12682;DHT22;6405;59.208;18.216;2022-10-16T08:56:31;12.90;99.90
12682;DHT22;6405;59.208;18.216;2022-10-16T08:59:00;12.90;99.90
12682;DHT22;6405;59.208;18.216;2022-10-16T09:01:38;12.80;99.90
12682;DHT22;6405;59.208;18.216;2022-10-16T09:07:12;12.90;99.90
12682;DHT22;6405;59.208;18.216;2022-10-16T09:12:41;13.10;99.90
12682;DHT22;6405;59.208;18.216;2022-10-16T09:15:17;13.20;99.90
12682;DHT22;6405;59.208;18.216;2022-10-16T09:17:56;13.30;99.90
12682;DHT22;6405;59.208;18.216;2022-10-16T09:26:13;13.50;99.90
12682;DHT22;6405;59.208;18.216;2022-10-16T09:28:42;13.50;99.90
12682;DHT22;6405;59.208;18.216;2022-10-16T09:31:18;13.50;99.90
12682;DHT22;6405;59.208;18.216;2022-10-16T09:33:47;13.50;99.90
12682;DHT22;6405;59.208;18.216;2022-10-16T09:36:15;13.60;99.90
12682;DHT22;6405;59.208;18.216;2022-10-16T09:38:42;13.60;99.90
12682;DHT22;6405;59.208;18.216;2022-10-16T09:41:27;13.60;99.90
12682;DHT22;6405;59.208;18.216;2022-10-16T09:49:05;13.70;99.90
12682;DHT22;6405;59.208;18.216;2022-10-16T09:51:37;13.70;99.90
12682;DHT22;6405;59.208;18.216;2022-10-16T09:56:37;13.80;99.90
12682;DHT22;6405;59.208;18.216;2022-10-16T10:01:41;13.80;99.90
12682;DHT22;6405;59.208;18.216;2022-10-16T10:04:10;13.70;99.90
12682;DHT22;6405;59.208;18.216;2022-10-16T10:06:48;13.60;99.90
12682;DHT22;6405;59.208;18.216;2022-10-16T10:09:25;13.60;99.90
12682;DHT22;6405;59.208;18.216;2022-10-16T10:12:01;13.60;99.90
12682;DHT22;6405;59.208;18.216;2022-10-16T10:14:37;13.50;99.90
12682;DHT22;6405;59.208;18.216;2022-10-16T10:19:46;13.60;99.90
12682;DHT22;6405;59.208;18.216;2022-10-16T10:22:43;13.70;99.90
12682;DHT22;6405;59.208;18.216;2022-10-16T10:27:56;13.60;99.90
12682;DHT22;6405;59.208;18.216;2022-10-16T10:33:25;13.50;99.90
12682;DHT22;6405;59.208;18.216;2022-10-16T10:38:47;13.60;99.90
12682;DHT22;6405;59.208;18.216;2022-10-16T11:03:51;14.00;99.90
12682;DHT22;6405;59.208;18.216;2022-10-16T11:06:08;13.90;99.90
12682;DHT22;6405;59.208;18.216;2022-10-16T11:08:45;13.90;99.90
12682;DHT22;6405;59.208;18.216;2022-10-16T11:11:20;14.00;99.90
12682;DHT22;6405;59.208;18.216;2022-10-16T11:13:58;14.10;99.90
12682;DHT22;6405;59.208;18.216;2022-10-16T11:16:29;14.00;99.90
12682;DHT22;6405;59.208;18.216;2022-10-16T11:21:30;13.90;99.90
12682;DHT22;6405;59.208;18.216;2022-10-16T11:24:01;13.90;99.90
12682;DHT22;6405;59.208;18.216;2022-10-16T11:26:35;13.90;99.90
12682;DHT22;6405;59.208;18.216;2022-10-16T11:29:05;14.00;99.90
12682;DHT22;6405;59.208;18.216;2022-10-16T11:31:46;14.00;99.90
12682;DHT22;6405;59.208;18.216;2022-10-16T11:37:12;14.00;99.90
12682;DHT22;6405;59.208;18.216;2022-10-16T11:39:40;14.00;99.90
12682;DHT22;6405;59.208;18.216;2022-10-16T11:42:40;14.00;99.90
12682;DHT22;6405;59.208;18.216;2022-10-16T11:47:45;13.80;99.90
12682;DHT22;6405;59.208;18.216;2022-10-16T11:50:29;13.70;99.90
12682;DHT22;6405;59.208;18.216;2022-10-16T11:55:37;13.50;99.90
12682;DHT22;6405;59.208;18.216;2022-10-16T12:01:10;13.70;99.90
12682;DHT22;6405;59.208;18.216;2022-10-16T12:03:58;13.90;99.90
12682;DHT22;6405;59.208;18.216;2022-10-16T12:09:36;14.00;99.90
12682;DHT22;6405;59.208;18.216;2022-10-16T12:12:04;14.00;99.90
12682;DHT22;6405;59.208;18.216;2022-10-16T12:14:34;14.10;99.90
12682;DHT22;6405;59.208;18.216;2022-10-16T12:17:42;14.20;99.90
12682;DHT22;6405;59.208;18.216;2022-10-16T12:22:57;13.90;99.90
12682;DHT22;6405;59.208;18.216;2022-10-16T12:25:27;14.00;99.90
12682;DHT22;6405;59.208;18.216;2022-10-16T12:28:05;14.00;99.90
12682;DHT22;6405;59.208;18.216;2022-10-16T12:30:35;14.00;99.90
12682;DHT22;6405;59.208;18.216;2022-10-16T12:35:48;13.90;99.90
12682;DHT22;6405;59.208;18.216;2022-10-16T12:38:17;13.90;99.90
12682;DHT22;6405;59.208;18.216;2022-10-16T12:40:47;14.00;99.90
12682;DHT22;6405;59.208;18.216;2022-10-16T12:45:47;14.20;99.90
12682;DHT22;6405;59.208;18.216;2022-10-16T12:48:21;14.20;99.90
12682;DHT22;6405;59.208;18.216;2022-10-16T12:50:48;14.00;99.90
12682;DHT22;6405;59.208;18.216;2022-10-16T12:53:22;13.90;99.90
12682;DHT22;6405;59.208;18.216;2022-10-16T12:58:51;13.60;99.90
12682;DHT22;6405;59.208;18.216;2022-10-16T13:01:29;13.70;99.90
12682;DHT22;6405;59.208;18.216;2022-10-16T13:07:15;13.90;99.90
12682;DHT22;6405;59.208;18.216;2022-10-16T13:24:13;14.20;99.90
12682;DHT22;6405;59.208;18.216;2022-10-16T13:29:16;14.00;99.90
12682;DHT22;6405;59.208;18.216;2022-10-16T13:31:44;13.90;99.90
12682;DHT22;6405;59.208;18.216;2022-10-16T13:34:17;13.90;99.90
12682;DHT22;6405;59.208;18.216;2022-10-16T13:36:47;13.60;99.90
12682;DHT22;6405;59.208;18.216;2022-10-16T13:39:29;13.60;99.90
12682;DHT22;6405;59.208;18.216;2022-10-16T13:42:10;13.60;99.90
12682;DHT22;6405;59.208;18.216;2022-10-16T13:44:50;13.60;99.90
12682;DHT22;6405;59.208;18.216;2022-10-16T13:47:22;13.60;99.90
12682;DHT22;6405;59.208;18.216;2022-10-16T13:50:10;13.70;99.90
12682;DHT22;6405;59.208;18.216;2022-10-16T13:52:39;13.80;99.90
12682;DHT22;6405;59.208;18.216;2022-10-16T13:55:17;13.80;99.90
12682;DHT22;6405;59.208;18.216;2022-10-16T13:57:43;13.80;99.90
12682;DHT22;6405;59.208;18.216;2022-10-16T14:00:25;13.70;99.90
12682;DHT22;6405;59.208;18.216;2022-10-16T14:03:05;13.70;99.90
12682;DHT22;6405;59.208;18.216;2022-10-16T14:05:33;13.70;99.90
12682;DHT22;6405;59.208;18.216;2022-10-16T14:08:01;13.60;99.90
12682;DHT22;6405;59.208;18.216;2022-10-16T14:10:30;13.50;99.90
12682;DHT22;6405;59.208;18.216;2022-10-16T14:13:14;13.50;99.90
12682;DHT22;6405;59.208;18.216;2022-10-16T14:15:47;13.50;99.90
12682;DHT22;6405;59.208;18.216;2022-10-16T14:18:20;13.40;99.90
12682;DHT22;6405;59.208;18.216;2022-10-16T14:20:49;13.40;99.90
12682;DHT22;6405;59.208;18.216;2022-10-16T14:23:28;13.30;99.90
12682;DHT22;6405;59.208;18.216;2022-10-16T14:26:13;13.20;99.90
12682;DHT22;6405;59.208;18.216;2022-10-16T14:28:41;13.10;99.90
12682;DHT22;6405;59.208;18.216;2022-10-16T14:33:53;12.80;99.90
12682;DHT22;6405;59.208;18.216;2022-10-16T14:36:20;12.80;99.90
12682;DHT22;6405;59.208;18.216;2022-10-16T14:39:04;12.70;99.90
12682;DHT22;6405;59.208;18.216;2022-10-16T14:41:41;12.70;99.90
12682;DHT22;6405;59.208;18.216;2022-10-16T14:44:12;12.70;99.90
12682;DHT22;6405;59.208;18.216;2022-10-16T14:46:41;12.60;99.90
12682;DHT22;6405;59.208;18.216;2022-10-16T14:51:39;12.60;99.90
12682;DHT22;6405;59.208;18.216;2022-10-16T14:54:09;12.60;99.90
12682;DHT22;6405;59.208;18.216;2022-10-16T14:56:56;12.50;99.90
12682;DHT22;6405;59.208;18.216;2022-10-16T15:04:52;12.40;99.90
12682;DHT22;6405;59.208;18.216;2022-10-16T15:07:19;12.40;99.90
12682;DHT22;6405;59.208;18.216;2022-10-16T15:09:45;12.40;99.90
12682;DHT22;6405;59.208;18.216;2022-10-16T15:12:11;12.40;99.90
12682;DHT22;6405;59.208;18.216;2022-10-16T15:14:38;12.40;99.90
12682;DHT22;6405;59.208;18.216;2022-10-16T15:17:07;12.40;99.90
12682;DHT22;6405;59.208;18.216;2022-10-16T15:19:34;12.40;99.90
12682;DHT22;6405;59.208;18.216;2022-10-16T15:22:02;12.40;99.90
12682;DHT22;6405;59.208;18.216;2022-10-16T15:24:28;12.40;99.90
12682;DHT22;6405;59.208;18.216;2022-10-16T15:26:55;12.40;99.90
12682;DHT22;6405;59.208;18.216;2022-10-16T15:29:21;12.40;99.90
12682;DHT22;6405;59.208;18.216;2022-10-16T15:31:48;12.40;99.90
12682;DHT22;6405;59.208;18.216;2022-10-16T15:34:13;12.40;99.90
12682;DHT22;6405;59.208;18.216;2022-10-16T15:36:39;12.40;99.90
12682;DHT22;6405;59.208;18.216;2022-10-16T15:39:17;12.40;99.90
12682;DHT22;6405;59.208;18.216;2022-10-16T15:41:45;12.40;99.90
12682;DHT22;6405;59.208;18.216;2022-10-16T15:44:17;12.30;99.90
12682;DHT22;6405;59.208;18.216;2022-10-16T15:46:46;11.50;99.90
12682;DHT22;6405;59.208;18.216;2022-10-16T15:49:14;10.50;99.90
12682;DHT22;6405;59.208;18.216;2022-10-16T15:51:41;10.30;99.90
12682;DHT22;6405;59.208;18.216;2022-10-16T15:54:09;10.20;99.90
12682;DHT22;6405;59.208;18.216;2022-10-16T15:56:35;9.90;99.90
12682;DHT22;6405;59.208;18.216;2022-10-16T15:59:04;9.80;99.90
12682;DHT22;6405;59.208;18.216;2022-10-16T16:01:33;9.70;99.90
12682;DHT22;6405;59.208;18.216;2022-10-16T16:04:01;9.70;99.90
12682;DHT22;6405;59.208;18.216;2022-10-16T16:06:28;9.70;99.90
12682;DHT22;6405;59.208;18.216;2022-10-16T16:08:55;9.60;99.90
12682;DHT22;6405;59.208;18.216;2022-10-16T16:11:23;9.60;99.90
12682;DHT22;6405;59.208;18.216;2022-10-16T16:13:50;9.60;99.90
12682;DHT22;6405;59.208;18.216;2022-10-16T16:16:16;9.60;99.90
12682;DHT22;6405;59.208;18.216;2022-10-16T16:18:43;9.60;99.90
12682;DHT22;6405;59.208;18.216;2022-10-16T16:21:11;9.60;99.90
12682;DHT22;6405;59.208;18.216;2022-10-16T16:23:37;9.60;99.90
12682;DHT22;6405;59.208;18.216;2022-10-16T16:28:30;9.70;99.90
12682;DHT22;6405;59.208;18.216;2022-10-16T16:30:57;9.70;99.90
12682;DHT22;6405;59.208;18.216;2022-10-16T16:33:24;9.80;99.90
12682;DHT22;6405;59.208;18.216;2022-10-16T16:35:55;9.70;99.90
12682;DHT22;6405;59.208;18.216;2022-10-16T16:38:22;9.70;99.90
12682;DHT22;6405;59.208;18.216;2022-10-16T16:40:50;9.70;99.90
12682;DHT22;6405;59.208;18.216;2022-10-16T16:43:17;9.80;99.90
12682;DHT22;6405;59.208;18.216;2022-10-16T16:45:45;9.70;99.90
12682;DHT22;6405;59.208;18.216;2022-10-16T16:48:12;9.70;99.90
12682;DHT22;6405;59.208;18.216;2022-10-16T16:50:39;9.70;99.90
12682;DHT22;6405;59.208;18.216;2022-10-16T16:53:05;9.70;99.90
12682;DHT22;6405;59.208;18.216;2022-10-16T16:55:33;9.70;99.90
12682;DHT22;6405;59.208;18.216;2022-10-16T16:57:59;9.80;99.90
12682;DHT22;6405;59.208;18.216;2022-10-16T17:00:26;9.80;99.90
12682;DHT22;6405;59.208;18.216;2022-10-16T17:02:53;9.70;99.90
12682;DHT22;6405;59.208;18.216;2022-10-16T17:05:21;9.70;99.90
12682;DHT22;6405;59.208;18.216;2022-10-16T17:07:48;9.70;99.90
12682;DHT22;6405;59.208;18.216;2022-10-16T17:10:13;9.70;99.90
12682;DHT22;6405;59.208;18.216;2022-10-16T17:12:39;9.70;99.90
12682;DHT22;6405;59.208;18.216;2022-10-16T17:15:05;9.70;99.90
12682;DHT22;6405;59.208;18.216;2022-10-16T17:17:32;9.60;99.90
12682;DHT22;6405;59.208;18.216;2022-10-16T17:19:59;9.60;99.90
12682;DHT22;6405;59.208;18.216;2022-10-16T17:22:26;9.60;99.90
12682;DHT22;6405;59.208;18.216;2022-10-16T17:24:53;9.60;99.90
12682;DHT22;6405;59.208;18.216;2022-10-16T17:27:20;9.50;99.90
12682;DHT22;6405;59.208;18.216;2022-10-16T17:29:52;9.40;99.90
12682;DHT22;6405;59.208;18.216;2022-10-16T17:32:19;9.30;99.90
12682;DHT22;6405;59.208;18.216;2022-10-16T17:34:47;9.30;99.90
12682;DHT22;6405;59.208;18.216;2022-10-16T17:37:13;9.30;99.90
12682;DHT22;6405;59.208;18.216;2022-10-16T17:39:41;9.20;99.90
12682;DHT22;6405;59.208;18.216;2022-10-16T17:42:08;9.20;99.90
12682;DHT22;6405;59.208;18.216;2022-10-16T17:44:35;9.10;99.90
12682;DHT22;6405;59.208;18.216;2022-10-16T17:47:02;9.00;99.90
12682;DHT22;6405;59.208;18.216;2022-10-16T17:49:30;9.00;99.90
12682;DHT22;6405;59.208;18.216;2022-10-16T17:51:56;8.90;99.90
12682;DHT22;6405;59.208;18.216;2022-10-16T17:54:24;8.90;99.90
12682;DHT22;6405;59.208;18.216;2022-10-16T17:56:50;8.80;99.90
12682;DHT22;6405;59.208;18.216;2022-10-16T17:59:18;8.80;99.90
12682;DHT22;6405;59.208;18.216;2022-10-16T18:01:47;8.70;99.90
12682;DHT22;6405;59.208;18.216;2022-10-16T18:04:16;8.70;99.90